Flight Track Log - Related Links

Times and Time Zones

All times are in EDT time to prevent confusion due to time zone crossing. See the SWA1044 flight status page for this flight to view local times or setup timezone preferences in your user account.

Time Position Orientation Groundspeed Altitude Reporting Facility
EDT Latitude Longitude Course Direction KTS MPH feet Rate Location/Type
Wed 04:49:38 PM 36.0750 -115.0142 91° East 247 284 5,200  Level Los Angeles Center
Wed 04:50:09 PM 36.0739 -114.9731 92° East 252 290 6,400 2,618 Climbing Los Angeles Center
Wed 04:50:33 PM 36.0481 -114.9406 135° Southeast 300 345 7,600 2,613 Climbing Los Angeles Center
Wed 04:51:11 PM 36.0075 -114.9208 159° South 286 329 9,100 2,727 Climbing Los Angeles Center
Wed 04:51:39 PM 35.9544 -114.9186 178° South 328 377 10,600 2,032 Climbing Los Angeles Center
Wed 04:52:13 PM 35.9150 -114.9206 182° South 321 369 11,200 2,164 Climbing Los Angeles Center
Wed 04:52:40 PM 35.8472 -114.9408 194° South 389 448 12,800 2,806 Climbing Los Angeles Center
Wed 04:53:15 PM 35.8072 -114.9553 196° South 379 436 14,100 2,907 Climbing Los Angeles Center
Wed 04:54:17 PM 35.6733 -115.0050 197° South 405 466 17,500 2,976 Climbing Los Angeles Center
Wed 04:55:20 PM 35.5511 -115.0506 197° South 438 504 20,300 2,516 Climbing Los Angeles Center
Wed 04:56:21 PM 35.4522 -115.0875 197° South 453 521 22,700 2,419 Climbing Los Angeles Center
Wed 04:57:24 PM 35.3019 -115.1475 198° South 469 540 25,300 2,208 Climbing Los Angeles Center
Wed 04:58:26 PM 35.1725 -115.2081 201° Southwest 490 564 27,300 1,306 Climbing Los Angeles Center
Wed 04:59:28 PM 35.0458 -115.2656 200° South 499 574 28,000 339 Climbing Los Angeles Center
Wed 05:00:30 PM 34.8842 -115.3375 200° South 499 574 28,000  Level Los Angeles Center
Wed 05:01:32 PM 34.7544 -115.3956 200° South 496 571 28,000  Level Los Angeles Center
Wed 05:02:34 PM 34.6339 -115.4492 200° South 494 568 28,000  Level Los Angeles Center
Wed 05:03:37 PM 34.5042 -115.5072 200° South 496 571 28,000  Level Los Angeles Center
Wed 05:04:39 PM 34.3758 -115.5644 200° South 492 566 28,000  Level Los Angeles Center
Wed 05:05:40 PM 34.2464 -115.6203 200° South 494 568 28,000  Level Los Angeles Center
Wed 05:06:43 PM 34.0906 -115.6897 200° South 495 570 28,000 -240 Level Los Angeles Center
Wed 05:07:45 PM 33.9625 -115.7464 200° South 492 566 27,500 -774 Descending Los Angeles Center
Wed 05:08:47 PM 33.8375 -115.8017 200° South 483 556 26,400 -919 Descending Los Angeles Center
Wed 05:09:49 PM 33.7389 -115.8458 200° South 474 545 25,600 -1,056 Descending Los Angeles Center
Wed 05:10:52 PM 33.5678 -115.9200 200° South 468 539 24,200 -1,056 Descending Los Angeles Center
Wed 05:11:54 PM 33.4675 -116.0047 215° Southwest 443 510 23,400 -1,742 Descending Los Angeles Center
Wed 05:12:56 PM 33.3717 -116.0967 219° Southwest 443 510 20,600 -2,516 Descending Los Angeles Center
Wed 05:13:58 PM 33.2767 -116.1861 218° Southwest 437 503 18,200 -2,323 Descending Los Angeles Center
Wed 05:15:00 PM 33.1850 -116.2747 219° Southwest 427 491 15,800 -2,323 Descending Los Angeles Center
Wed 05:16:02 PM 33.0956 -116.3597 219° Southwest 420 483 13,400 -1,887 Descending Los Angeles Center
Wed 05:17:04 PM 33.0028 -116.4447 218° Southwest 399 459 11,900 -1,210 Descending Los Angeles Center
Wed 05:18:06 PM 32.8961 -116.5067 206° Southwest 358 412 10,900 -912 Descending Los Angeles Center
Wed 05:19:09 PM 32.8306 -116.5606 215° Southwest 334 384 10,000 -1,152 Descending Los Angeles Center
Wed 05:20:11 PM 32.7792 -116.6667 240° Southwest 310 357 8,500 -1,355 Descending Los Angeles Center
Wed 05:21:13 PM 32.7381 -116.7531 241° Southwest 303 349 7,200 -1,210 Descending Los Angeles Center
Wed 05:22:15 PM 32.7000 -116.8364 242° Southwest 294 338 6,000 -1,165 Descending Los Angeles Center
Wed 05:22:56 PM 32.6833 -116.9000 253° West 261 300 5,200 -1,296 Descending Southern California TRACON
Wed 05:24:57 PM 32.7000 -117.0500 278° West 214 246 2,500 -1,260 Descending Southern California TRACON
Wed 05:25:57 PM 32.7167 -117.1000 292° West 168 193 1,400 -950 Descending Southern California TRACON
Wed 05:26:57 PM 32.7167 -117.1500 270° West 137 158 600 -742 Descending Southern California TRACON
Wed 05:27:26 PM 32.7261 -117.1628 311° West 142 163 300 -621 Descending Los Angeles Center
Wed 05:29:00 PM 32.7333 -117.1833 281° West  Level FlightAware Approximate
Wed 05:36:00 PM 32.7336 -117.1897 281° West  Level Estimated

Login

Don't have an account? Register now (free) for customized features, flight alerts, and more!